createdAt,value
2019-05-10T00:03:02.339Z,13.20
2019-05-10T00:06:09.828Z,12.60
2019-05-10T00:08:58.310Z,13.00
2019-05-10T00:11:59.627Z,11.30
2019-05-10T00:14:50.503Z,10.23
2019-05-10T00:17:39.475Z,11.97
2019-05-10T00:20:28.497Z,19.50
2019-05-10T00:23:17.961Z,15.90
2019-05-10T00:26:07.817Z,10.67
2019-05-10T00:28:57.489Z,8.40
2019-05-10T00:31:47.142Z,7.87
2019-05-10T00:34:36.586Z,8.30
2019-05-10T00:37:06.834Z,8.50
2019-05-10T00:39:55.682Z,8.10
2019-05-10T00:42:44.363Z,8.40
2019-05-10T00:45:34.043Z,8.37
2019-05-10T00:48:22.943Z,8.97
2019-05-10T00:51:12.284Z,10.97
2019-05-10T00:54:01.224Z,10.00
2019-05-10T00:56:50.439Z,10.27
2019-05-10T00:59:40.053Z,10.90
2019-05-10T01:02:29.073Z,10.10
2019-05-10T01:05:17.966Z,9.50
2019-05-10T01:08:07.203Z,8.87
2019-05-10T01:10:57.009Z,9.53
2019-05-10T01:13:46.067Z,8.70
2019-05-10T01:16:35.143Z,8.00
2019-05-10T01:19:24.298Z,8.93
2019-05-10T01:22:12.890Z,7.70
2019-05-10T01:25:01.965Z,7.73
2019-05-10T01:27:51.003Z,8.10
2019-05-10T01:30:40.397Z,7.87
2019-05-10T01:33:29.460Z,7.50
2019-05-10T01:36:18.503Z,7.80
2019-05-10T01:39:07.898Z,7.47
2019-05-10T01:41:57.108Z,7.90
2019-05-10T01:44:46.666Z,8.17
2019-05-10T01:47:35.656Z,9.07
2019-05-10T01:50:24.842Z,7.90
2019-05-10T01:53:13.678Z,8.00
2019-05-10T01:56:02.369Z,8.37
2019-05-10T01:58:52.044Z,7.90
2019-05-10T02:01:41.259Z,8.70
2019-05-10T02:04:30.335Z,7.80
2019-05-10T02:07:00.844Z,7.90
2019-05-10T02:09:50.332Z,8.07
2019-05-10T02:12:39.651Z,8.30
2019-05-10T02:15:29.172Z,7.90
2019-05-10T02:18:18.515Z,8.27
2019-05-10T02:21:07.454Z,9.03
2019-05-10T02:23:56.440Z,8.30
2019-05-10T02:26:45.781Z,8.50
2019-05-10T02:29:35.628Z,9.27
2019-05-10T02:32:24.384Z,9.70
2019-05-10T02:35:13.977Z,9.53
2019-05-10T02:38:02.948Z,12.27
2019-05-10T02:40:52.157Z,12.27
2019-05-10T02:43:41.452Z,11.50
2019-05-10T02:46:30.736Z,10.73
2019-05-10T02:49:19.818Z,10.17
2019-05-10T02:52:08.785Z,8.60
2019-05-10T02:54:58.172Z,9.20
2019-05-10T02:57:47.477Z,8.00
2019-05-10T03:00:37.827Z,7.87
2019-05-10T03:03:29.198Z,7.40
2019-05-10T03:06:19.851Z,8.30
2019-05-10T03:09:08.997Z,8.13
2019-05-10T03:12:00.593Z,8.67
2019-05-10T03:14:52.866Z,10.73
2019-05-10T03:17:42.737Z,10.30
2019-05-10T03:20:39.475Z,11.10
2019-05-10T03:23:33.025Z,10.90
2019-05-10T03:26:23.872Z,10.67
2019-05-10T03:29:13.003Z,10.50
2019-05-10T03:32:02.429Z,11.03
2019-05-10T03:34:51.892Z,11.50
2019-05-10T03:37:40.708Z,11.97
2019-05-10T03:40:29.516Z,12.07
2019-05-10T03:43:19.018Z,13.37
2019-05-10T03:46:08.201Z,13.47
2019-05-10T03:48:57.017Z,13.00
2019-05-10T03:51:46.584Z,13.37
2019-05-10T03:54:36.052Z,13.93
2019-05-10T03:57:25.062Z,13.93
2019-05-10T04:00:14.920Z,15.13
2019-05-10T04:03:03.533Z,17.40
2019-05-10T04:05:52.264Z,15.20
2019-05-10T04:08:41.099Z,17.50
2019-05-10T04:11:29.832Z,18.13
2019-05-10T04:14:18.763Z,18.87
2019-05-10T04:17:07.855Z,19.47
2019-05-10T04:19:57.019Z,20.37
2019-05-10T04:22:46.419Z,18.43
2019-05-10T04:25:35.387Z,18.63
2019-05-10T04:28:24.413Z,19.03
2019-05-10T04:31:13.489Z,18.93
2019-05-10T04:34:02.752Z,19.10
2019-05-10T04:36:48.671Z,18.60
2019-05-10T04:39:37.853Z,18.60
2019-05-10T04:42:27.103Z,20.67
2019-05-10T04:45:16.944Z,18.33
2019-05-10T04:48:05.821Z,19.53
2019-05-10T04:50:55.080Z,19.40
2019-05-10T04:53:44.330Z,20.00
2019-05-10T04:56:33.287Z,19.50
2019-05-10T04:59:22.269Z,18.67
2019-05-10T05:02:11.628Z,18.80
2019-05-10T05:05:01.052Z,18.50
2019-05-10T05:07:50.417Z,17.90
2019-05-10T05:10:39.835Z,19.97
2019-05-10T05:13:28.922Z,20.00
2019-05-10T05:15:59.203Z,17.67
2019-05-10T05:18:49.366Z,19.50
2019-05-10T05:21:39.224Z,18.13
2019-05-10T05:24:27.994Z,20.93
2019-05-10T05:27:16.999Z,20.03
2019-05-10T05:29:47.979Z,20.63
2019-05-10T05:32:18.121Z,21.10
2019-05-10T05:35:07.878Z,21.60
2019-05-10T05:37:57.173Z,21.47
2019-05-10T05:40:46.610Z,22.20
2019-05-10T05:43:45.557Z,21.67
2019-05-10T05:46:26.793Z,22.47
2019-05-10T05:49:16.426Z,23.53
2019-05-10T05:52:05.721Z,22.17
2019-05-10T05:54:57.616Z,23.63
2019-05-10T05:57:45.290Z,22.33
2019-05-10T06:00:37.719Z,22.70
2019-05-10T06:03:06.530Z,21.73
2019-05-10T06:05:56.156Z,21.60
2019-05-10T06:08:45.652Z,21.47
2019-05-10T06:11:35.801Z,22.20
2019-05-10T06:14:25.109Z,22.47
2019-05-10T06:17:14.652Z,22.93
2019-05-10T06:20:05.871Z,21.27
2019-05-10T06:23:06.527Z,21.20
2019-05-10T06:25:45.556Z,19.97
2019-05-10T06:28:57.566Z,21.10
2019-05-10T06:31:25.354Z,19.97
2019-05-10T06:34:14.811Z,19.13
2019-05-10T06:37:03.903Z,18.83
2019-05-10T06:39:53.420Z,20.80
2019-05-10T06:42:43.129Z,19.50
2019-05-10T06:45:32.114Z,18.90
2019-05-10T06:48:02.574Z,19.13
2019-05-10T06:50:32.937Z,19.10
2019-05-10T06:53:07.566Z,19.00
2019-05-10T06:55:35.251Z,20.67
2019-05-10T06:58:05.692Z,19.10
2019-05-10T07:00:38.008Z,20.70
2019-05-10T07:03:08.288Z,21.17
2019-05-10T07:05:38.353Z,19.37
2019-05-10T07:08:16.358Z,19.77
2019-05-10T07:10:40.715Z,20.57
2019-05-10T07:13:11.193Z,21.07
2019-05-10T07:15:44.626Z,21.37
2019-05-10T07:18:31.656Z,21.47
2019-05-10T07:21:20.962Z,20.63
2019-05-10T07:24:10.263Z,20.10
2019-05-10T07:27:02.351Z,19.83
2019-05-10T07:29:49.810Z,21.47
2019-05-10T07:32:39.457Z,21.20
2019-05-10T07:35:31.001Z,21.27
2019-05-10T07:38:01.606Z,22.90
2019-05-10T07:40:51.038Z,20.83
2019-05-10T07:43:40.289Z,20.53
2019-05-10T07:46:29.531Z,20.60
2019-05-10T07:49:23.661Z,20.03
2019-05-10T07:52:09.324Z,19.20
2019-05-10T07:54:58.929Z,20.93
2019-05-10T07:57:47.779Z,19.97
2019-05-10T08:00:38.003Z,20.83
2019-05-10T08:03:29.858Z,22.60
2019-05-10T08:06:02.145Z,22.17
2019-05-10T08:08:33.688Z,21.83
2019-05-10T08:11:03.993Z,20.57
2019-05-10T08:13:34.930Z,21.60
2019-05-10T08:16:09.956Z,20.37
2019-05-10T08:19:01.016Z,21.20
2019-05-10T08:21:48.768Z,19.77
2019-05-10T08:24:37.764Z,19.70
2019-05-10T08:27:28.290Z,19.40
2019-05-10T08:30:33.697Z,19.23
2019-05-10T08:33:22.995Z,18.50
2019-05-10T08:36:12.250Z,17.37
2019-05-10T08:39:09.546Z,17.70
2019-05-10T08:42:01.251Z,17.30
2019-05-10T08:44:42.817Z,15.70
2019-05-10T08:47:32.548Z,16.73
2019-05-10T08:50:42.506Z,14.63
2019-05-10T08:53:16.388Z,14.53
2019-05-10T08:56:07.499Z,13.90
2019-05-10T08:58:54.383Z,13.90
2019-05-10T09:01:46.497Z,13.00
2019-05-10T09:04:43.715Z,13.03
2019-05-10T09:07:29.389Z,13.70
2019-05-10T09:10:17.695Z,13.87
2019-05-10T09:13:07.416Z,14.20
2019-05-10T09:15:57.128Z,15.30
2019-05-10T09:18:50.320Z,16.20
2019-05-10T09:21:41.329Z,14.80
2019-05-10T09:24:27.406Z,16.10
2019-05-10T09:27:16.304Z,14.30
2019-05-10T09:30:08.084Z,15.60
2019-05-10T09:33:03.051Z,14.20
2019-05-10T09:35:51.454Z,13.30
2019-05-10T09:38:39.630Z,14.60
2019-05-10T09:41:32.790Z,13.90
2019-05-10T09:44:18.708Z,14.30
2019-05-10T09:47:08.350Z,13.00
2019-05-10T09:49:58.950Z,12.43
2019-05-10T09:52:48.824Z,11.83
2019-05-10T09:55:37.775Z,11.47
2019-05-10T09:58:28.534Z,12.50
2019-05-10T10:01:21.482Z,13.00
2019-05-10T10:04:08.961Z,12.40
2019-05-10T10:06:58.275Z,14.40
2019-05-10T10:09:47.762Z,14.90
2019-05-10T10:12:37.444Z,16.20
2019-05-10T10:15:33.564Z,15.23
2019-05-10T10:18:05.888Z,15.37
2019-05-10T10:20:55.246Z,14.83
2019-05-10T10:23:44.823Z,14.77
2019-05-10T10:26:34.659Z,15.50
2019-05-10T10:29:23.905Z,14.90
2019-05-10T10:32:12.852Z,14.60
2019-05-10T10:35:02.531Z,14.07
2019-05-10T10:37:51.376Z,15.43
2019-05-10T10:40:44.770Z,15.80
2019-05-10T10:43:30.654Z,15.50
2019-05-10T10:46:19.991Z,17.97
2019-05-10T10:49:10.605Z,17.67
2019-05-10T10:52:05.468Z,16.97
2019-05-10T10:54:51.908Z,17.07
2019-05-10T10:57:41.322Z,17.57
2019-05-10T11:00:38.390Z,17.10
2019-05-10T11:03:30.367Z,17.90
2019-05-10T11:06:17.493Z,15.30
2019-05-10T11:09:08.949Z,17.00
2019-05-10T11:12:00.874Z,19.13
2019-05-10T11:14:49.658Z,17.27
2019-05-10T11:17:20.106Z,14.40
2019-05-10T11:20:11.487Z,13.93
2019-05-10T11:23:00.391Z,15.10
2019-05-10T11:25:54.922Z,14.70
2019-05-10T11:28:44.038Z,14.33
2019-05-10T11:31:32.369Z,14.77
2019-05-10T11:34:21.990Z,14.20
2019-05-10T11:37:10.864Z,13.23
2019-05-10T11:40:01.783Z,13.60
2019-05-10T11:42:51.080Z,11.90
2019-05-10T11:45:43.688Z,11.70
2019-05-10T11:48:37.159Z,11.67
2019-05-10T11:51:22.590Z,12.37
2019-05-10T11:54:12.486Z,11.50
2019-05-10T11:57:06.575Z,10.43
2019-05-10T11:59:52.508Z,11.53
2019-05-10T12:03:01.699Z,10.93
2019-05-10T12:05:32.669Z,9.57
2019-05-10T12:08:22.525Z,9.10
2019-05-10T12:11:27.743Z,8.63
2019-05-10T12:14:03.246Z,8.90
2019-05-10T12:16:54.646Z,8.70
2019-05-10T12:19:47.737Z,8.50
2019-05-10T12:22:38.286Z,9.60
2019-05-10T12:25:42.605Z,8.90
2019-05-10T12:28:15.392Z,7.67
2019-05-10T12:31:07.719Z,8.90
2019-05-10T12:34:02.406Z,8.07
2019-05-10T12:36:46.693Z,8.60
2019-05-10T12:39:35.618Z,7.90
2019-05-10T12:42:24.789Z,7.63
2019-05-10T12:45:14.593Z,7.93
2019-05-10T12:48:03.744Z,7.60
2019-05-10T12:50:57.909Z,8.30
2019-05-10T12:53:48.896Z,8.00
2019-05-10T12:56:16.840Z,9.30
2019-05-10T12:58:56.353Z,7.90
2019-05-10T13:01:25.599Z,8.27
2019-05-10T13:04:16.770Z,8.47
2019-05-10T13:07:05.522Z,8.00
2019-05-10T13:10:02.690Z,8.53
2019-05-10T13:12:47.393Z,8.50
2019-05-10T13:15:37.471Z,8.13
2019-05-10T13:18:48.102Z,8.27
2019-05-10T13:21:20.697Z,8.03
2019-05-10T13:24:07.902Z,8.50
2019-05-10T13:26:57.222Z,8.13
2019-05-10T13:29:50.443Z,8.93
2019-05-10T13:32:36.787Z,8.70
2019-05-10T13:35:25.793Z,8.50
2019-05-10T13:38:14.852Z,7.60
2019-05-10T13:41:04.055Z,7.70
2019-05-10T13:43:53.044Z,7.60
2019-05-10T13:46:42.704Z,7.00
2019-05-10T13:49:13.192Z,8.47
2019-05-10T13:51:43.671Z,8.20
2019-05-10T13:54:14.123Z,6.40
2019-05-10T13:56:52.039Z,6.60
2019-05-10T13:59:18.074Z,7.40
2019-05-10T14:01:49.676Z,7.83
2019-05-10T14:04:23.152Z,8.40
2019-05-10T14:06:52.691Z,8.23
2019-05-10T14:09:23.068Z,7.73
2019-05-10T14:11:53.358Z,7.37
2019-05-10T14:14:42.518Z,7.50
2019-05-10T14:17:32.210Z,6.33
2019-05-10T14:20:03.484Z,5.97
2019-05-10T14:22:34.211Z,6.13
2019-05-10T14:25:05.845Z,5.63
2019-05-10T14:27:38.082Z,5.47
2019-05-10T14:30:13.397Z,6.03
2019-05-10T14:32:41.332Z,6.07
2019-05-10T14:35:30.400Z,5.70
2019-05-10T14:38:22.715Z,6.30
2019-05-10T14:41:13.242Z,5.70
2019-05-10T14:44:00.778Z,5.53
2019-05-10T14:46:50.519Z,5.90
2019-05-10T14:49:42.050Z,6.70
2019-05-10T14:52:30.517Z,6.90
2019-05-10T14:55:21.297Z,6.87
2019-05-10T14:58:11.017Z,6.37
2019-05-10T15:01:00.733Z,6.03
2019-05-10T15:03:50.153Z,5.40
2019-05-10T15:06:39.608Z,6.20
2019-05-10T15:09:29.054Z,6.80
2019-05-10T15:12:22.497Z,5.90
2019-05-10T15:15:09.748Z,7.00
2019-05-10T15:18:01.878Z,6.57
2019-05-10T15:20:50.034Z,5.67
2019-05-10T15:23:39.842Z,6.20
2019-05-10T15:26:29.303Z,6.20
2019-05-10T15:28:59.429Z,5.93
2019-05-10T15:31:48.376Z,6.27
2019-05-10T15:34:37.472Z,6.10
2019-05-10T15:37:26.721Z,6.30
2019-05-10T15:40:16.069Z,5.23
2019-05-10T15:43:10.694Z,7.17
2019-05-10T15:45:56.770Z,6.00
2019-05-10T15:48:46.683Z,6.10
2019-05-10T15:51:36.833Z,5.87
2019-05-10T15:54:26.299Z,5.30
2019-05-10T15:57:20.336Z,5.60
2019-05-10T16:00:07.175Z,6.07
2019-05-10T16:02:57.034Z,6.20
2019-05-10T16:05:42.388Z,8.00
2019-05-10T16:08:00.327Z,7.90
2019-05-10T16:10:38.691Z,9.20
2019-05-10T16:13:03.225Z,7.30
2019-05-10T16:15:33.458Z,7.00
2019-05-10T16:18:22.740Z,7.60
2019-05-10T16:21:15.313Z,8.33
2019-05-10T16:24:02.651Z,8.10
2019-05-10T16:26:54.654Z,8.67
2019-05-10T16:29:42.811Z,8.70
2019-05-10T16:32:34.498Z,7.43
2019-05-10T16:35:37.045Z,7.30
2019-05-10T16:38:14.285Z,7.03
2019-05-10T16:41:03.821Z,8.40
2019-05-10T16:43:57.947Z,7.47
2019-05-10T16:46:37.289Z,6.93
2019-05-10T16:49:27.200Z,7.00
2019-05-10T16:52:19.614Z,8.30
2019-05-10T16:55:09.630Z,7.10
2019-05-10T16:57:57.383Z,7.10
2019-05-10T17:00:47.886Z,7.67
2019-05-10T17:03:37.758Z,10.23
2019-05-10T17:06:27.012Z,9.97
2019-05-10T17:09:18.602Z,10.10
2019-05-10T17:12:06.926Z,11.87
2019-05-10T17:15:02.308Z,11.47
2019-05-10T17:17:37.330Z,12.07
2019-05-10T17:20:25.523Z,12.63
2019-05-10T17:23:14.738Z,11.00
2019-05-10T17:26:04.085Z,11.00
2019-05-10T17:28:53.522Z,10.00
2019-05-10T17:31:45.533Z,11.07
2019-05-10T17:34:32.847Z,11.60
2019-05-10T17:37:21.913Z,10.93
2019-05-10T17:40:12.294Z,10.33
2019-05-10T17:43:01.857Z,10.27
2019-05-10T17:45:40.431Z,9.87
2019-05-10T17:48:28.772Z,10.17
2019-05-10T17:51:19.128Z,10.07
2019-05-10T17:54:07.880Z,9.50
2019-05-10T17:56:56.713Z,10.30
2019-05-10T17:59:46.967Z,9.97
2019-05-10T18:02:37.504Z,10.93
2019-05-10T18:05:17.828Z,10.03
2019-05-10T18:08:07.054Z,10.23
2019-05-10T18:10:37.800Z,10.00
2019-05-10T18:13:27.067Z,9.63
2019-05-10T18:16:16.029Z,10.70
2019-05-10T18:19:05.383Z,10.27
2019-05-10T18:21:55.032Z,10.60
2019-05-10T18:24:45.045Z,10.73
2019-05-10T18:27:33.938Z,10.20
2019-05-10T18:30:04.603Z,10.87
2019-05-10T18:32:53.792Z,10.87
2019-05-10T18:35:23.879Z,11.60
2019-05-10T18:38:13.560Z,11.40
2019-05-10T18:41:05.236Z,11.40
2019-05-10T18:43:53.078Z,11.00
2019-05-10T18:46:42.163Z,11.27
2019-05-10T18:49:31.827Z,9.90
2019-05-10T18:52:21.941Z,11.00
2019-05-10T18:55:10.828Z,10.20
2019-05-10T18:58:13.028Z,11.90
2019-05-10T19:01:02.487Z,11.90
2019-05-10T19:03:52.046Z,11.07
2019-05-10T19:06:35.459Z,11.30
2019-05-10T19:09:24.932Z,11.30
2019-05-10T19:12:18.853Z,11.10
2019-05-10T19:15:09.002Z,11.80
2019-05-10T19:17:57.345Z,10.57
2019-05-10T19:20:48.894Z,10.90
2019-05-10T19:23:37.757Z,11.03
2019-05-10T19:26:29.776Z,11.67
2019-05-10T19:29:18.700Z,10.97
2019-05-10T19:31:49.001Z,10.17
2019-05-10T19:34:37.701Z,10.60
2019-05-10T19:37:31.710Z,11.63
2019-05-10T19:40:17.135Z,9.77
2019-05-10T19:43:06.429Z,10.20
2019-05-10T19:47:32.286Z,10.73
2019-05-10T19:48:45.997Z,10.80
2019-05-10T19:51:35.574Z,10.07
2019-05-10T19:54:25.454Z,10.17
2019-05-10T19:57:16.217Z,10.60
2019-05-10T20:00:04.789Z,10.40
2019-05-10T20:02:54.117Z,10.40
2019-05-10T20:05:42.704Z,12.00
2019-05-10T20:08:32.079Z,12.50
2019-05-10T20:11:21.945Z,12.10
2019-05-10T20:14:11.368Z,10.80
2019-05-10T20:17:00.247Z,10.60
2019-05-10T20:19:49.036Z,11.00
2019-05-10T20:22:38.444Z,11.30
2019-05-10T20:25:27.052Z,12.67
2019-05-10T20:28:16.560Z,12.20
2019-05-10T20:31:05.359Z,12.63
2019-05-10T20:33:55.028Z,12.60
2019-05-10T20:36:43.893Z,13.00
2019-05-10T20:39:33.214Z,13.67
2019-05-10T20:42:22.544Z,12.47
2019-05-10T20:45:12.073Z,12.83
2019-05-10T20:48:01.326Z,12.53
2019-05-10T20:50:50.761Z,13.00
2019-05-10T20:53:39.660Z,15.10
2019-05-10T20:56:29.216Z,14.57
2019-05-10T20:59:18.277Z,13.40
2019-05-10T21:02:07.802Z,15.00
2019-05-10T21:04:57.456Z,15.47
2019-05-10T21:07:46.606Z,17.67
2019-05-10T21:10:36.750Z,16.20
2019-05-10T21:13:26.152Z,15.23
2019-05-10T21:16:15.852Z,14.50
2019-05-10T21:19:04.823Z,16.03
2019-05-10T21:21:54.109Z,15.60
2019-05-10T21:24:43.553Z,15.77
2019-05-10T21:27:32.551Z,15.90
2019-05-10T21:30:22.052Z,13.23
2019-05-10T21:33:10.966Z,14.40
2019-05-10T21:36:00.480Z,14.30
2019-05-10T21:38:49.901Z,14.50
2019-05-10T21:41:39.186Z,13.37
2019-05-10T21:44:28.294Z,12.80
2019-05-10T21:47:17.282Z,12.87
2019-05-10T21:50:06.386Z,13.50
2019-05-10T21:52:55.759Z,13.00
2019-05-10T21:55:46.749Z,12.73
2019-05-10T21:58:36.099Z,12.57
2019-05-10T22:01:24.956Z,13.80
2019-05-10T22:04:14.562Z,13.00
2019-05-10T22:07:04.543Z,13.37
2019-05-10T22:09:54.239Z,12.97
2019-05-10T22:12:39.792Z,12.13
2019-05-10T22:15:29.458Z,12.57
2019-05-10T22:18:18.691Z,14.10
2019-05-10T22:21:08.400Z,14.70
2019-05-10T22:23:57.553Z,15.50
2019-05-10T22:26:46.939Z,15.10
2019-05-10T22:29:36.392Z,14.77
2019-05-10T22:32:26.277Z,14.70
2019-05-10T22:35:15.386Z,14.50
2019-05-10T22:38:04.197Z,14.40
2019-05-10T22:40:53.197Z,14.23
2019-05-10T22:43:42.294Z,14.50
2019-05-10T22:46:32.091Z,15.40
2019-05-10T22:49:21.325Z,17.07
2019-05-10T22:52:10.595Z,16.23
2019-05-10T22:55:00.562Z,15.97
2019-05-10T22:57:49.477Z,17.57
2019-05-10T23:00:39.224Z,16.33
2019-05-10T23:03:28.954Z,16.90
2019-05-10T23:06:17.845Z,17.17
2019-05-10T23:09:00.467Z,17.40
2019-05-10T23:11:49.675Z,16.80
2019-05-10T23:14:38.807Z,16.33
2019-05-10T23:17:28.299Z,17.43
2019-05-10T23:20:18.145Z,17.47
2019-05-10T23:23:07.054Z,17.47
2019-05-10T23:25:56.169Z,18.30
2019-05-10T23:28:45.240Z,19.37
2019-05-10T23:31:35.605Z,17.90
2019-05-10T23:34:24.496Z,18.97
2019-05-10T23:37:13.948Z,18.50
2019-05-10T23:40:02.658Z,18.10
2019-05-10T23:42:51.664Z,18.27
2019-05-10T23:45:41.325Z,19.30
2019-05-10T23:48:30.203Z,20.67
2019-05-10T23:51:19.528Z,22.00
2019-05-10T23:54:08.805Z,19.37
2019-05-10T23:56:58.117Z,20.93
2019-05-10T23:59:47.443Z,20.63
